CheckWX is a tool to help pilots better visualize weather data.  It is not intended as a substitute for an official pre-flight weather briefing.

07:18:12 UTC

LFCR TAF
Rodez-Marcillac Airport
Rodez/Marcillac, France
TAF LFCR 180500Z 1806/1906 VRB02KT CAVOK BECMG 1810/1812 32008KT SCT050TCU PROB40 TEMPO 1812/1817 -SHRA SCT025CB PROB30 TEMPO 1812/1816 4000 -TSRA PROB30 TEMPO 1819/1821 17015G25KT 4000 -TSRA BKN030CB BECMG 1821/1823 12005KT CAVOK BECMG 1901/1903 VRB02KT PROB30 TEMPO 1903/1906 BKN006

Sep-18@
06:00 UTC

Sep-18 @ 06:00 UTC

Sep-18@
10:00 UTC

Sep-18 @ 10:00 UTC

TAF LFCR 180500Z 1806/1906 VRB02KT CAVOK
Wind
  • Variable at 2 KTS
Conditions
No significant weather
Cloud Levels
  • No significant clouds

Sep-18@
10:00 UTC

Sep-18 @ 10:00 UTC

Sep-18@
21:00 UTC

Sep-18 @ 21:00 UTC

BECMG 1810/1812 32008KT SCT050TCU

Becoming

Becoming Conditions expected by Wed, Sep 18, 2019 @ 12:00 UTC

Wind
  • 320° at 8 KTS
Conditions
No significant weather
Cloud Levels
  • Scattered at 5,000' AGL

Sep-18@
12:00 UTC

Sep-18 @ 12:00 UTC

Sep-18@
16:00 UTC

Sep-18 @ 16:00 UTC

PROB30 TEMPO 1812/1816 4000 -TSRA

Temporary - 30% Likelihood

Temporary - 30% Likelihood during this time.

Conditions
Light Thunderstorm, Light Rain

Sep-18@
12:00 UTC

Sep-18 @ 12:00 UTC

Sep-18@
17:00 UTC

Sep-18 @ 17:00 UTC

PROB40 TEMPO 1812/1817 -SHRA SCT025CB

Temporary - 40% Likelihood

Temporary - 40% Likelihood during this time.

Conditions
Light Rain
Cloud Levels
  • Scattered at 2,500' AGL

Sep-18@
19:00 UTC

Sep-18 @ 19:00 UTC

Sep-18@
21:00 UTC

Sep-18 @ 21:00 UTC

PROB30 TEMPO 1819/1821 17015G25KT 4000 -TSRA BKN030CB

Temporary - 30% Likelihood

Temporary - 30% Likelihood during this time.

Wind
  • 170° at 15 KTS
  • {Gusting to 25 KTS
Conditions
Light Thunderstorm, Light Rain
Cloud Levels
  • Broken at 3,000' AGL

Sep-18@
21:00 UTC

Sep-18 @ 21:00 UTC

Sep-19@
01:00 UTC

Sep-19 @ 01:00 UTC

BECMG 1821/1823 12005KT CAVOK

Becoming

Becoming Conditions expected by Wed, Sep 18, 2019 @ 23:00 UTC

Wind
  • 120° at 5 KTS
Conditions
No significant weather
Cloud Levels
  • No significant clouds

Sep-19@
01:00 UTC

Sep-19 @ 01:00 UTC

Sep-19@
06:00 UTC

Sep-19 @ 06:00 UTC

BECMG 1901/1903 VRB02KT

Becoming

Becoming Conditions expected by Thu, Sep 19, 2019 @ 03:00 UTC

Wind
  • Variable at 2 KTS
Conditions
No significant weather
Cloud Levels
  • No significant clouds

Sep-19@
03:00 UTC

Sep-19 @ 03:00 UTC

Sep-19@
06:00 UTC

Sep-19 @ 06:00 UTC

PROB30 TEMPO 1903/1906 BKN006

Temporary - 30% Likelihood

Temporary - 30% Likelihood during this time.

Cloud Levels
  • Broken at 600' AGL